LOT23ER EPKK-LROP
Flight info
| Callsign | LOT23ER |
|---|---|
| Flight time | 1h 13m |
| Altitude | 37000 |
| Route | REGTO DCT KENIN DCT KUSIS DCT ALOXU DCT TOSVI |
| Aircraft | B738/M-SDE2E3FGHIRWXY/LB1 |
Departure
| Time | 2026-04-30 18:23 |
|---|---|
| Airport | Kraków John Paul II International Airport (EPKK) |
Arrival
| Time | 2026-04-30 19:36 |
|---|---|
| Airport | Bucharest Henri Coandă International Airport (LROP) |
| Time | Latitude | Longitude | Altitude | Speed | Heading |
|---|---|---|---|---|---|
| 2026-04-30 18:05 | 50.07336 | 19.80207 | 799 ft | 0 kts | 168° |
| 2026-04-30 18:14 | 50.07362 | 19.80197 | 799 ft | 2 kts | 162° |
| 2026-04-30 18:15 | 50.07405 | 19.80160 | 799 ft | 2 kts | 126° |
| 2026-04-30 18:15 | 50.07411 | 19.80111 | 799 ft | 0 kts | 77° |
| 2026-04-30 18:18 | 50.07411 | 19.80112 | 799 ft | 0 kts | 77° |
| 2026-04-30 18:18 | 50.07415 | 19.80142 | 799 ft | 4 kts | 78° |
| 2026-04-30 18:18 | 50.07420 | 19.80176 | 799 ft | 6 kts | 78° |
| 2026-04-30 18:18 | 50.07433 | 19.80271 | 799 ft | 8 kts | 78° |
| 2026-04-30 18:19 | 50.07442 | 19.80329 | 799 ft | 9 kts | 72° |
| 2026-04-30 18:19 | 50.07486 | 19.80385 | 799 ft | 8 kts | 20° |
| 2026-04-30 18:19 | 50.07541 | 19.80412 | 799 ft | 8 kts | 17° |
| 2026-04-30 18:19 | 50.07596 | 19.80420 | 799 ft | 8 kts | 351° |
| 2026-04-30 18:20 | 50.07650 | 19.80401 | 799 ft | 8 kts | 347° |
| 2026-04-30 18:20 | 50.07701 | 19.80384 | 799 ft | 7 kts | 348° |
| 2026-04-30 18:20 | 50.07751 | 19.80367 | 799 ft | 7 kts | 348° |
| 2026-04-30 18:20 | 50.07800 | 19.80351 | 799 ft | 7 kts | 348° |
| 2026-04-30 18:21 | 50.07846 | 19.80336 | 799 ft | 7 kts | 348° |
| 2026-04-30 18:21 | 50.07892 | 19.80321 | 799 ft | 7 kts | 348° |
| 2026-04-30 18:21 | 50.07936 | 19.80306 | 799 ft | 6 kts | 348° |
| 2026-04-30 18:21 | 50.07979 | 19.80290 | 798 ft | 7 kts | 343° |
| 2026-04-30 18:22 | 50.08011 | 19.80241 | 799 ft | 7 kts | 289° |
| 2026-04-30 18:22 | 50.07847 | 19.79019 | 800 ft | 133 kts | 257° |
| 2026-04-30 18:22 | 50.07600 | 19.77288 | 914 ft | 189 kts | 257° |
| 2026-04-30 18:23 | 50.07258 | 19.75178 | 1574 ft | 213 kts | 258° |
| 2026-04-30 18:23 | 50.06936 | 19.72831 | 2360 ft | 225 kts | 261° |
| 2026-04-30 18:23 | 50.06607 | 19.70389 | 3193 ft | 237 kts | 261° |
| 2026-04-30 18:23 | 50.06243 | 19.67878 | 4017 ft | 240 kts | 255° |
| 2026-04-30 18:24 | 50.03621 | 19.64487 | 5069 ft | 274 kts | 188° |
| 2026-04-30 18:24 | 50.01727 | 19.64723 | 5810 ft | 277 kts | 159° |
| 2026-04-30 18:24 | 50.00099 | 19.66297 | 6595 ft | 277 kts | 136° |
| 2026-04-30 18:25 | 49.98740 | 19.68423 | 7340 ft | 279 kts | 129° |
| 2026-04-30 18:25 | 49.96156 | 19.72980 | 8869 ft | 283 kts | 127° |
| 2026-04-30 18:25 | 49.94850 | 19.75292 | 9642 ft | 286 kts | 127° |
| 2026-04-30 18:26 | 49.92184 | 19.79945 | 10819 ft | 303 kts | 127° |
| 2026-04-30 18:26 | 49.90728 | 19.82466 | 10970 ft | 325 kts | 127° |
| 2026-04-30 18:26 | 49.89165 | 19.85154 | 11147 ft | 346 kts | 128° |
| 2026-04-30 18:27 | 49.85784 | 19.90910 | 11945 ft | 370 kts | 128° |
| 2026-04-30 18:27 | 49.84034 | 19.93863 | 12618 ft | 373 kts | 128° |
| 2026-04-30 18:28 | 49.80525 | 19.99769 | 14016 ft | 378 kts | 127° |
| 2026-04-30 18:28 | 49.78739 | 20.02775 | 14599 ft | 382 kts | 127° |
| 2026-04-30 18:28 | 49.75108 | 20.08875 | 15774 ft | 389 kts | 127° |
| 2026-04-30 18:29 | 49.73269 | 20.11961 | 16316 ft | 392 kts | 127° |
| 2026-04-30 18:29 | 49.67652 | 20.21362 | 17990 ft | 401 kts | 128° |
| 2026-04-30 18:30 | 49.63840 | 20.27722 | 19080 ft | 406 kts | 127° |
| 2026-04-30 18:30 | 49.59998 | 20.34119 | 19999 ft | 413 kts | 127° |
| 2026-04-30 18:31 | 49.58040 | 20.37372 | 20460 ft | 415 kts | 128° |
| 2026-04-30 18:31 | 49.54081 | 20.43938 | 21389 ft | 421 kts | 128° |
| 2026-04-30 18:32 | 49.50060 | 20.50590 | 22278 ft | 427 kts | 128° |
| 2026-04-30 18:32 | 49.48029 | 20.53943 | 22715 ft | 430 kts | 128° |
| 2026-04-30 18:32 | 49.43915 | 20.60724 | 23511 ft | 438 kts | 128° |
| 2026-04-30 18:33 | 49.41830 | 20.64152 | 23927 ft | 440 kts | 128° |
| 2026-04-30 18:33 | 49.37332 | 20.70626 | 24625 ft | 448 kts | 136° |
| 2026-04-30 18:33 | 49.34887 | 20.73630 | 24964 ft | 451 kts | 137° |
| 2026-04-30 18:34 | 49.32413 | 20.76612 | 25292 ft | 453 kts | 137° |
| 2026-04-30 18:34 | 49.27441 | 20.82619 | 25921 ft | 457 kts | 137° |
| 2026-04-30 18:34 | 49.24948 | 20.85662 | 26257 ft | 459 kts | 137° |
| 2026-04-30 18:35 | 49.22453 | 20.88722 | 26528 ft | 461 kts | 137° |
| 2026-04-30 18:35 | 49.19945 | 20.91808 | 26817 ft | 463 kts | 137° |
| 2026-04-30 18:35 | 49.17429 | 20.94903 | 27114 ft | 465 kts | 137° |
| 2026-04-30 18:36 | 49.12452 | 21.01021 | 27663 ft | 468 kts | 137° |
| 2026-04-30 18:36 | 49.09904 | 21.04147 | 27926 ft | 470 kts | 137° |
| 2026-04-30 18:36 | 49.04811 | 21.10378 | 28475 ft | 473 kts | 137° |
| 2026-04-30 18:37 | 49.02245 | 21.13508 | 28845 ft | 473 kts | 137° |
| 2026-04-30 18:37 | 48.99693 | 21.16618 | 29283 ft | 471 kts | 137° |
| 2026-04-30 18:37 | 48.97136 | 21.19728 | 29677 ft | 470 kts | 137° |
| 2026-04-30 18:37 | 48.94582 | 21.22832 | 30031 ft | 469 kts | 137° |
| 2026-04-30 18:38 | 48.92037 | 21.25922 | 30374 ft | 469 kts | 137° |
| 2026-04-30 18:38 | 48.89484 | 21.29018 | 30663 ft | 468 kts | 137° |
| 2026-04-30 18:38 | 48.86934 | 21.32106 | 30914 ft | 469 kts | 137° |
| 2026-04-30 18:38 | 48.84384 | 21.35190 | 31187 ft | 468 kts | 137° |
| 2026-04-30 18:39 | 48.81834 | 21.38269 | 31440 ft | 468 kts | 137° |
| 2026-04-30 18:39 | 48.79288 | 21.41340 | 31671 ft | 469 kts | 137° |
| 2026-04-30 18:39 | 48.76731 | 21.44420 | 31922 ft | 469 kts | 137° |
| 2026-04-30 18:39 | 48.74174 | 21.47497 | 32113 ft | 471 kts | 137° |
| 2026-04-30 18:40 | 48.71605 | 21.50582 | 32370 ft | 470 kts | 137° |
| 2026-04-30 18:40 | 48.69043 | 21.53654 | 32643 ft | 470 kts | 137° |
| 2026-04-30 18:40 | 48.66480 | 21.56724 | 32871 ft | 470 kts | 137° |
| 2026-04-30 18:40 | 48.63914 | 21.59795 | 33090 ft | 471 kts | 137° |
| 2026-04-30 18:41 | 48.61344 | 21.62866 | 33308 ft | 471 kts | 137° |
| 2026-04-30 18:41 | 48.58773 | 21.65933 | 33550 ft | 471 kts | 137° |
| 2026-04-30 18:41 | 48.56202 | 21.68997 | 33770 ft | 471 kts | 138° |
| 2026-04-30 18:41 | 48.53632 | 21.72055 | 33973 ft | 471 kts | 138° |
| 2026-04-30 18:42 | 48.51058 | 21.75115 | 34196 ft | 471 kts | 138° |
| 2026-04-30 18:42 | 48.45909 | 21.81223 | 34571 ft | 471 kts | 138° |
| 2026-04-30 18:42 | 48.43356 | 21.84245 | 34729 ft | 472 kts | 138° |
| 2026-04-30 18:45 | 48.16010 | 22.11636 | 36258 ft | 477 kts | 145° |
| 2026-04-30 18:45 | 48.13200 | 22.14260 | 36387 ft | 477 kts | 145° |
| 2026-04-30 18:45 | 48.10389 | 22.16886 | 36540 ft | 477 kts | 145° |
| 2026-04-30 18:46 | 48.07575 | 22.19512 | 36676 ft | 477 kts | 145° |
| 2026-04-30 18:46 | 48.04757 | 22.22136 | 36793 ft | 477 kts | 145° |
| 2026-04-30 18:46 | 48.01931 | 22.24764 | 36933 ft | 477 kts | 146° |
| 2026-04-30 18:46 | 47.99119 | 22.27373 | 37047 ft | 478 kts | 146° |
| 2026-04-30 18:47 | 47.96294 | 22.29992 | 37170 ft | 478 kts | 146° |
| 2026-04-30 18:47 | 47.93469 | 22.32607 | 37317 ft | 478 kts | 146° |
| 2026-04-30 18:47 | 47.90681 | 22.35185 | 37445 ft | 477 kts | 146° |
| 2026-04-30 18:47 | 47.87822 | 22.37824 | 37595 ft | 477 kts | 146° |
| 2026-04-30 18:48 | 47.85050 | 22.40421 | 37678 ft | 477 kts | 145° |
| 2026-04-30 18:48 | 47.79484 | 22.45855 | 37780 ft | 480 kts | 144° |
| 2026-04-30 18:49 | 47.73893 | 22.51372 | 37869 ft | 483 kts | 144° |
| 2026-04-30 18:49 | 47.68278 | 22.56871 | 38037 ft | 484 kts | 145° |
| 2026-04-30 18:50 | 47.62628 | 22.62365 | 38113 ft | 486 kts | 145° |
| 2026-04-30 18:50 | 47.59800 | 22.65106 | 38226 ft | 486 kts | 145° |
| 2026-04-30 18:50 | 47.56976 | 22.67838 | 38297 ft | 486 kts | 145° |
| 2026-04-30 18:51 | 47.51306 | 22.73314 | 38312 ft | 487 kts | 145° |
| 2026-04-30 18:51 | 47.45617 | 22.78796 | 38313 ft | 489 kts | 145° |
| 2026-04-30 18:52 | 47.39909 | 22.84283 | 38305 ft | 490 kts | 146° |
| 2026-04-30 18:52 | 47.34186 | 22.89769 | 38314 ft | 491 kts | 146° |
| 2026-04-30 18:53 | 47.28488 | 22.95217 | 38322 ft | 491 kts | 146° |
| 2026-04-30 18:53 | 47.22856 | 23.00588 | 38315 ft | 492 kts | 146° |
| 2026-04-30 18:54 | 47.17101 | 23.06061 | 38302 ft | 492 kts | 146° |
| 2026-04-30 18:54 | 47.11353 | 23.11514 | 38307 ft | 492 kts | 146° |
| 2026-04-30 18:55 | 47.05598 | 23.16959 | 38309 ft | 492 kts | 146° |
| 2026-04-30 18:55 | 46.96962 | 23.25105 | 38306 ft | 493 kts | 147° |
| 2026-04-30 18:56 | 46.88300 | 23.33242 | 38302 ft | 493 kts | 147° |
| 2026-04-30 18:57 | 46.79624 | 23.41361 | 38324 ft | 494 kts | 147° |
| 2026-04-30 18:57 | 46.73871 | 23.46727 | 38289 ft | 494 kts | 147° |
| 2026-04-30 18:58 | 46.66121 | 23.53935 | 38300 ft | 494 kts | 147° |
| 2026-04-30 18:59 | 46.56481 | 23.62865 | 38306 ft | 494 kts | 148° |
| 2026-04-30 19:00 | 46.44869 | 23.73572 | 38327 ft | 495 kts | 148° |
| 2026-04-30 19:01 | 46.33241 | 23.84239 | 38323 ft | 495 kts | 148° |
| 2026-04-30 19:02 | 46.24501 | 23.92220 | 38329 ft | 495 kts | 148° |
| 2026-04-30 19:03 | 46.12951 | 24.02722 | 38337 ft | 494 kts | 148° |
| 2026-04-30 19:04 | 46.01339 | 24.13228 | 37496 ft | 491 kts | 148° |
| 2026-04-30 19:04 | 45.95556 | 24.18440 | 36168 ft | 493 kts | 148° |
| 2026-04-30 19:05 | 45.89737 | 24.23672 | 34883 ft | 494 kts | 148° |
| 2026-04-30 19:05 | 45.83895 | 24.28913 | 33458 ft | 496 kts | 148° |
| 2026-04-30 19:06 | 45.78046 | 24.34146 | 32088 ft | 495 kts | 148° |
| 2026-04-30 19:06 | 45.75101 | 24.36689 | 31446 ft | 493 kts | 149° |
| 2026-04-30 19:06 | 45.69179 | 24.41476 | 30496 ft | 485 kts | 150° |
| 2026-04-30 19:07 | 45.63341 | 24.46122 | 29396 ft | 475 kts | 150° |
| 2026-04-30 19:07 | 45.60469 | 24.48422 | 28899 ft | 470 kts | 149° |
| 2026-04-30 19:08 | 45.54836 | 24.52961 | 27930 ft | 460 kts | 149° |
| 2026-04-30 19:08 | 45.49310 | 24.57420 | 26944 ft | 452 kts | 149° |
| 2026-04-30 19:08 | 45.46590 | 24.59612 | 26493 ft | 448 kts | 149° |
| 2026-04-30 19:09 | 45.41208 | 24.63941 | 25569 ft | 440 kts | 149° |
| 2026-04-30 19:09 | 45.38548 | 24.66076 | 25112 ft | 437 kts | 149° |
| 2026-04-30 19:09 | 45.35911 | 24.68191 | 24657 ft | 434 kts | 149° |
| 2026-04-30 19:10 | 45.30709 | 24.72355 | 23728 ft | 429 kts | 148° |
| 2026-04-30 19:10 | 45.25539 | 24.76485 | 22702 ft | 423 kts | 148° |
| 2026-04-30 19:11 | 45.22953 | 24.78548 | 22241 ft | 419 kts | 149° |
| 2026-04-30 19:11 | 45.18760 | 24.81887 | 21496 ft | 413 kts | 148° |
| 2026-04-30 19:11 | 45.16268 | 24.83869 | 21057 ft | 410 kts | 148° |
| 2026-04-30 19:12 | 45.13790 | 24.85838 | 20617 ft | 407 kts | 148° |
| 2026-04-30 19:12 | 45.10536 | 24.88421 | 20044 ft | 403 kts | 148° |
| 2026-04-30 19:12 | 45.08092 | 24.90358 | 19610 ft | 401 kts | 148° |
| 2026-04-30 19:13 | 45.03267 | 24.94175 | 18785 ft | 394 kts | 150° |
| 2026-04-30 19:13 | 44.99291 | 24.97320 | 17989 ft | 389 kts | 150° |
| 2026-04-30 19:13 | 44.96939 | 24.99177 | 17534 ft | 386 kts | 150° |
| 2026-04-30 19:14 | 44.94682 | 25.00958 | 17138 ft | 383 kts | 150° |
| 2026-04-30 19:14 | 44.92367 | 25.02781 | 16705 ft | 379 kts | 150° |
| 2026-04-30 19:14 | 44.90070 | 25.04589 | 16292 ft | 376 kts | 150° |
| 2026-04-30 19:14 | 44.87797 | 25.06377 | 15905 ft | 373 kts | 150° |
| 2026-04-30 19:15 | 44.85540 | 25.08151 | 15495 ft | 370 kts | 150° |
| 2026-04-30 19:15 | 44.81115 | 25.11626 | 14725 ft | 363 kts | 151° |
| 2026-04-30 19:15 | 44.78937 | 25.13331 | 14568 ft | 352 kts | 151° |
| 2026-04-30 19:16 | 44.76876 | 25.15113 | 14386 ft | 343 kts | 139° |
| 2026-04-30 19:16 | 44.75408 | 25.17662 | 14224 ft | 332 kts | 117° |
| 2026-04-30 19:16 | 44.74155 | 25.23757 | 13762 ft | 322 kts | 100° |
| 2026-04-30 19:17 | 44.73717 | 25.26835 | 13530 ft | 320 kts | 99° |
| 2026-04-30 19:17 | 44.72819 | 25.33016 | 13091 ft | 325 kts | 100° |
| 2026-04-30 19:17 | 44.72350 | 25.36131 | 12857 ft | 324 kts | 100° |
| 2026-04-30 19:18 | 44.71566 | 25.41250 | 12486 ft | 321 kts | 101° |
| 2026-04-30 19:18 | 44.71085 | 25.45359 | 12173 ft | 317 kts | 86° |
| 2026-04-30 19:18 | 44.71297 | 25.48414 | 11996 ft | 313 kts | 81° |
| 2026-04-30 19:19 | 44.71580 | 25.51446 | 11759 ft | 312 kts | 81° |
| 2026-04-30 19:19 | 44.71856 | 25.54471 | 11545 ft | 311 kts | 81° |
| 2026-04-30 19:19 | 44.72372 | 25.60508 | 11104 ft | 311 kts | 81° |
| 2026-04-30 19:20 | 44.72617 | 25.63513 | 10882 ft | 307 kts | 81° |
| 2026-04-30 19:20 | 44.72852 | 25.66460 | 10670 ft | 301 kts | 81° |
| 2026-04-30 19:20 | 44.73363 | 25.72936 | 10309 ft | 284 kts | 82° |
| 2026-04-30 19:21 | 44.73280 | 25.75658 | 10153 ft | 281 kts | 104° |
| 2026-04-30 19:21 | 44.70701 | 25.79529 | 9646 ft | 280 kts | 157° |
| 2026-04-30 19:22 | 44.66916 | 25.80293 | 9209 ft | 274 kts | 187° |
| 2026-04-30 19:22 | 44.63411 | 25.74926 | 8686 ft | 262 kts | 265° |
| 2026-04-30 19:23 | 44.62841 | 25.67295 | 8138 ft | 265 kts | 267° |
| 2026-04-30 19:24 | 44.62442 | 25.62134 | 7764 ft | 267 kts | 266° |
| 2026-04-30 19:24 | 44.62236 | 25.59553 | 7578 ft | 267 kts | 266° |
| 2026-04-30 19:24 | 44.61891 | 25.55254 | 7266 ft | 267 kts | 266° |
| 2026-04-30 19:25 | 44.60442 | 25.47928 | 6665 ft | 264 kts | 220° |
| 2026-04-30 19:26 | 44.57138 | 25.46557 | 6318 ft | 246 kts | 172° |
| 2026-04-30 19:26 | 44.53832 | 25.47323 | 5959 ft | 240 kts | 146° |
| 2026-04-30 19:26 | 44.52740 | 25.48964 | 5828 ft | 225 kts | 105° |
| 2026-04-30 19:27 | 44.52562 | 25.53199 | 5536 ft | 222 kts | 84° |
| 2026-04-30 19:27 | 44.52795 | 25.57480 | 5193 ft | 216 kts | 82° |
| 2026-04-30 19:28 | 44.52936 | 25.59547 | 5040 ft | 210 kts | 81° |
| 2026-04-30 19:28 | 44.53219 | 25.63525 | 4488 ft | 201 kts | 82° |
| 2026-04-30 19:29 | 44.53487 | 25.67284 | 4148 ft | 187 kts | 82° |
| 2026-04-30 19:29 | 44.53615 | 25.69057 | 4021 ft | 178 kts | 82° |
| 2026-04-30 19:30 | 44.53971 | 25.73982 | 3655 ft | 167 kts | 81° |
| 2026-04-30 19:30 | 44.54203 | 25.77173 | 3448 ft | 164 kts | 82° |
| 2026-04-30 19:31 | 44.54433 | 25.80378 | 3210 ft | 166 kts | 82° |
| 2026-04-30 19:31 | 44.54544 | 25.81912 | 3089 ft | 149 kts | 81° |
| 2026-04-30 19:31 | 44.54750 | 25.84694 | 2879 ft | 144 kts | 81° |
| 2026-04-30 19:32 | 44.54852 | 25.86087 | 2782 ft | 144 kts | 81° |
| 2026-04-30 19:32 | 44.54954 | 25.87474 | 2675 ft | 143 kts | 81° |
| 2026-04-30 19:32 | 44.55057 | 25.88865 | 2555 ft | 144 kts | 81° |
| 2026-04-30 19:32 | 44.55158 | 25.90237 | 2500 ft | 141 kts | 81° |
| 2026-04-30 19:33 | 44.55259 | 25.91588 | 2367 ft | 142 kts | 81° |
| 2026-04-30 19:33 | 44.55360 | 25.92957 | 2204 ft | 140 kts | 81° |
| 2026-04-30 19:33 | 44.55461 | 25.94307 | 2037 ft | 141 kts | 81° |
| 2026-04-30 19:33 | 44.55566 | 25.95707 | 1878 ft | 147 kts | 82° |
| 2026-04-30 19:34 | 44.55672 | 25.97143 | 1686 ft | 148 kts | 82° |
| 2026-04-30 19:34 | 44.55778 | 25.98561 | 1510 ft | 145 kts | 82° |
| 2026-04-30 19:34 | 44.55974 | 26.01192 | 1194 ft | 135 kts | 82° |
| 2026-04-30 19:35 | 44.56074 | 26.02508 | 1029 ft | 139 kts | 83° |
| 2026-04-30 19:35 | 44.56177 | 26.03862 | 863 ft | 140 kts | 82° |
| 2026-04-30 19:35 | 44.56291 | 26.05218 | 747 ft | 140 kts | 84° |
| 2026-04-30 19:35 | 44.56386 | 26.06606 | 557 ft | 144 kts | 81° |
| 2026-04-30 19:36 | 44.56487 | 26.07974 | 357 ft | 138 kts | 82° |
| 2026-04-30 19:36 | 44.56587 | 26.09240 | 310 ft | 121 kts | 79° |
| 2026-04-30 19:36 | 44.56695 | 26.10700 | 317 ft | 26 kts | 84° |
| 2026-04-30 19:37 | 44.56761 | 26.10768 | 317 ft | 13 kts | 347° |
| 2026-04-30 19:37 | 44.56804 | 26.10756 | 317 ft | 6 kts | 351° |
| 2026-04-30 19:37 | 44.56806 | 26.10755 | 315 ft | 0 kts | 351° |
| 2026-04-30 19:38 | 44.56835 | 26.10748 | 317 ft | 7 kts | 351° |
| 2026-04-30 19:38 | 44.56895 | 26.10735 | 315 ft | 10 kts | 354° |
| 2026-04-30 19:38 | 44.56971 | 26.10725 | 317 ft | 12 kts | 340° |
| 2026-04-30 19:38 | 44.57034 | 26.10636 | 316 ft | 14 kts | 301° |
| 2026-04-30 19:39 | 44.57066 | 26.10497 | 316 ft | 16 kts | 267° |
| 2026-04-30 19:39 | 44.57054 | 26.10334 | 316 ft | 18 kts | 265° |
| 2026-04-30 19:39 | 44.57042 | 26.10148 | 316 ft | 20 kts | 265° |
| 2026-04-30 19:39 | 44.57028 | 26.09941 | 315 ft | 22 kts | 263° |
| 2026-04-30 19:40 | 44.57007 | 26.09731 | 315 ft | 22 kts | 264° |
| 2026-04-30 19:40 | 44.56991 | 26.09525 | 313 ft | 21 kts | 264° |
| 2026-04-30 19:40 | 44.56976 | 26.09326 | 314 ft | 20 kts | 264° |
| 2026-04-30 19:40 | 44.56961 | 26.09132 | 314 ft | 20 kts | 264° |
| 2026-04-30 19:41 | 44.56947 | 26.08932 | 313 ft | 22 kts | 264° |
| 2026-04-30 19:41 | 44.56931 | 26.08731 | 313 ft | 19 kts | 263° |
| 2026-04-30 19:41 | 44.56922 | 26.08601 | 313 ft | 10 kts | 270° |
| 2026-04-30 19:41 | 44.56971 | 26.08542 | 314 ft | 10 kts | 349° |
| 2026-04-30 19:42 | 44.57039 | 26.08531 | 315 ft | 10 kts | 353° |
| 2026-04-30 19:42 | 44.57107 | 26.08520 | 315 ft | 10 kts | 353° |
| 2026-04-30 19:42 | 44.57172 | 26.08512 | 317 ft | 9 kts | 355° |
| 2026-04-30 19:42 | 44.57229 | 26.08481 | 317 ft | 9 kts | 298° |
| 2026-04-30 19:43 | 44.57231 | 26.08391 | 318 ft | 9 kts | 267° |
| 2026-04-30 19:43 | 44.57213 | 26.08304 | 317 ft | 9 kts | 255° |
| 2026-04-30 19:43 | 44.57201 | 26.08215 | 317 ft | 9 kts | 266° |
| 2026-04-30 19:44 | 44.57190 | 26.08054 | 317 ft | 7 kts | 264° |
| 2026-04-30 19:44 | 44.57185 | 26.07985 | 316 ft | 7 kts | 264° |
| 2026-04-30 19:44 | 44.57181 | 26.07918 | 316 ft | 2 kts | 264° |
| 2026-04-30 19:44 | 44.57180 | 26.07910 | 316 ft | 1 kts | 264° |
| 2026-04-30 19:45 | 44.57178 | 26.07893 | 315 ft | 2 kts | 257° |
| 2026-04-30 19:45 | 44.57165 | 26.07882 | 315 ft | 3 kts | 189° |
| 2026-04-30 19:45 | 44.57147 | 26.07880 | 315 ft | 3 kts | 181° |
| 2026-04-30 19:45 | 44.57130 | 26.07880 | 314 ft | 3 kts | 175° |
| 2026-04-30 19:46 | 44.57115 | 26.07883 | 315 ft | 2 kts | 173° |
| 2026-04-30 19:46 | 44.57109 | 26.07884 | 315 ft | 0 kts | 173° |